sensor_id;sensor_type;location;lat;lon;timestamp;temperature;humidity
26947;DHT22;14501;52.282;10.560;2024-03-22T00:01:49;8.20;99.90
26947;DHT22;14501;52.282;10.560;2024-03-22T00:06:42;8.30;99.90
26947;DHT22;14501;52.282;10.560;2024-03-22T00:09:09;8.30;99.90
26947;DHT22;14501;52.282;10.560;2024-03-22T00:11:34;8.40;99.90
26947;DHT22;14501;52.282;10.560;2024-03-22T00:14:00;7.70;99.90
26947;DHT22;14501;52.282;10.560;2024-03-22T00:16:26;8.40;99.90
26947;DHT22;14501;52.282;10.560;2024-03-22T00:18:52;8.10;99.90
26947;DHT22;14501;52.282;10.560;2024-03-22T00:21:17;8.30;99.90
26947;DHT22;14501;52.282;10.560;2024-03-22T00:23:44;8.50;99.90
26947;DHT22;14501;52.282;10.560;2024-03-22T00:26:10;10.30;99.90
26947;DHT22;14501;52.282;10.560;2024-03-22T00:28:35;8.30;99.90
26947;DHT22;14501;52.282;10.560;2024-03-22T00:31:01;8.30;99.90
26947;DHT22;14501;52.282;10.560;2024-03-22T00:33:26;8.40;99.90
26947;DHT22;14501;52.282;10.560;2024-03-22T00:35:52;7.80;99.90
26947;DHT22;14501;52.282;10.560;2024-03-22T00:38:17;8.30;99.90
26947;DHT22;14501;52.282;10.560;2024-03-22T00:40:43;9.80;99.90
26947;DHT22;14501;52.282;10.560;2024-03-22T00:43:09;8.40;99.90
26947;DHT22;14501;52.282;10.560;2024-03-22T00:45:34;8.40;99.90
26947;DHT22;14501;52.282;10.560;2024-03-22T00:48:00;8.30;99.90
26947;DHT22;14501;52.282;10.560;2024-03-22T00:50:26;8.40;99.90
26947;DHT22;14501;52.282;10.560;2024-03-22T00:52:51;9.00;99.90
26947;DHT22;14501;52.282;10.560;2024-03-22T00:55:22;8.40;99.90
26947;DHT22;14501;52.282;10.560;2024-03-22T00:57:47;8.40;99.90
26947;DHT22;14501;52.282;10.560;2024-03-22T01:00:13;8.40;99.90
26947;DHT22;14501;52.282;10.560;2024-03-22T01:02:40;8.50;99.90
26947;DHT22;14501;52.282;10.560;2024-03-22T01:05:05;8.50;99.90
26947;DHT22;14501;52.282;10.560;2024-03-22T01:07:31;8.60;99.90
26947;DHT22;14501;52.282;10.560;2024-03-22T01:12:22;8.60;99.90
26947;DHT22;14501;52.282;10.560;2024-03-22T01:14:48;8.60;99.90
26947;DHT22;14501;52.282;10.560;2024-03-22T01:17:13;8.70;99.90
26947;DHT22;14501;52.282;10.560;2024-03-22T01:19:39;8.30;99.90
26947;DHT22;14501;52.282;10.560;2024-03-22T01:22:05;8.70;99.90
26947;DHT22;14501;52.282;10.560;2024-03-22T01:24:30;8.80;99.90
26947;DHT22;14501;52.282;10.560;2024-03-22T01:26:56;8.80;99.90
26947;DHT22;14501;52.282;10.560;2024-03-22T01:29:21;8.80;99.90
26947;DHT22;14501;52.282;10.560;2024-03-22T01:31:47;8.80;99.90
26947;DHT22;14501;52.282;10.560;2024-03-22T01:34:13;10.40;99.90
26947;DHT22;14501;52.282;10.560;2024-03-22T01:36:39;9.00;99.90
26947;DHT22;14501;52.282;10.560;2024-03-22T01:39:04;8.90;99.90
26947;DHT22;14501;52.282;10.560;2024-03-22T01:41:30;8.80;99.90
26947;DHT22;14501;52.282;10.560;2024-03-22T01:43:57;10.10;99.90
26947;DHT22;14501;52.282;10.560;2024-03-22T01:46:23;9.10;99.90
26947;DHT22;14501;52.282;10.560;2024-03-22T01:48:48;9.80;99.90
26947;DHT22;14501;52.282;10.560;2024-03-22T01:51:14;9.00;99.90
26947;DHT22;14501;52.282;10.560;2024-03-22T01:53:40;8.80;99.90
26947;DHT22;14501;52.282;10.560;2024-03-22T01:56:07;9.40;99.90
26947;DHT22;14501;52.282;10.560;2024-03-22T01:58:33;9.10;99.90
26947;DHT22;14501;52.282;10.560;2024-03-22T02:00:59;9.10;99.90
26947;DHT22;14501;52.282;10.560;2024-03-22T02:03:24;9.10;99.90
26947;DHT22;14501;52.282;10.560;2024-03-22T02:05:50;11.20;99.90
26947;DHT22;14501;52.282;10.560;2024-03-22T02:08:16;11.10;99.90
26947;DHT22;14501;52.282;10.560;2024-03-22T02:10:42;9.10;99.90
26947;DHT22;14501;52.282;10.560;2024-03-22T02:13:08;9.10;99.90
26947;DHT22;14501;52.282;10.560;2024-03-22T02:15:33;9.10;99.90
26947;DHT22;14501;52.282;10.560;2024-03-22T02:17:59;9.10;99.90
26947;DHT22;14501;52.282;10.560;2024-03-22T02:20:24;9.20;99.90
26947;DHT22;14501;52.282;10.560;2024-03-22T02:22:50;9.10;99.90
26947;DHT22;14501;52.282;10.560;2024-03-22T02:25:15;9.10;99.90
26947;DHT22;14501;52.282;10.560;2024-03-22T02:27:41;9.20;99.90
26947;DHT22;14501;52.282;10.560;2024-03-22T02:30:07;9.20;99.90
26947;DHT22;14501;52.282;10.560;2024-03-22T02:32:33;9.20;99.90
26947;DHT22;14501;52.282;10.560;2024-03-22T02:34:58;10.80;99.90
26947;DHT22;14501;52.282;10.560;2024-03-22T02:37:24;9.20;99.90
26947;DHT22;14501;52.282;10.560;2024-03-22T02:39:49;9.20;99.90
26947;DHT22;14501;52.282;10.560;2024-03-22T02:42:15;9.20;99.90
26947;DHT22;14501;52.282;10.560;2024-03-22T02:44:41;9.30;99.90
26947;DHT22;14501;52.282;10.560;2024-03-22T02:47:11;9.30;99.90
26947;DHT22;14501;52.282;10.560;2024-03-22T02:49:38;9.30;99.90
26947;DHT22;14501;52.282;10.560;2024-03-22T02:52:04;9.20;99.90
26947;DHT22;14501;52.282;10.560;2024-03-22T02:54:30;9.30;99.90
26947;DHT22;14501;52.282;10.560;2024-03-22T02:56:56;9.10;99.90
26947;DHT22;14501;52.282;10.560;2024-03-22T02:59:21;9.30;99.90
26947;DHT22;14501;52.282;10.560;2024-03-22T03:01:47;11.40;99.90
26947;DHT22;14501;52.282;10.560;2024-03-22T03:04:12;9.20;99.90
26947;DHT22;14501;52.282;10.560;2024-03-22T03:06:38;9.40;99.90
26947;DHT22;14501;52.282;10.560;2024-03-22T03:09:03;9.30;99.90
26947;DHT22;14501;52.282;10.560;2024-03-22T03:11:32;9.30;99.90
26947;DHT22;14501;52.282;10.560;2024-03-22T03:13:58;9.30;99.90
26947;DHT22;14501;52.282;10.560;2024-03-22T03:18:50;9.30;99.90
26947;DHT22;14501;52.282;10.560;2024-03-22T03:21:15;11.60;99.90
26947;DHT22;14501;52.282;10.560;2024-03-22T03:23:41;9.30;99.90
26947;DHT22;14501;52.282;10.560;2024-03-22T03:26:08;9.10;99.90
26947;DHT22;14501;52.282;10.560;2024-03-22T03:28:33;10.00;99.90
26947;DHT22;14501;52.282;10.560;2024-03-22T03:30:59;9.20;99.90
26947;DHT22;14501;52.282;10.560;2024-03-22T03:33:25;9.70;99.90
26947;DHT22;14501;52.282;10.560;2024-03-22T03:35:50;9.20;99.90
26947;DHT22;14501;52.282;10.560;2024-03-22T03:38:17;9.20;99.90
26947;DHT22;14501;52.282;10.560;2024-03-22T03:40:42;9.20;99.90
26947;DHT22;14501;52.282;10.560;2024-03-22T03:43:08;9.80;99.90
26947;DHT22;14501;52.282;10.560;2024-03-22T03:45:36;9.30;99.90
26947;DHT22;14501;52.282;10.560;2024-03-22T03:48:02;9.20;99.90
26947;DHT22;14501;52.282;10.560;2024-03-22T03:50:28;9.20;99.90
26947;DHT22;14501;52.282;10.560;2024-03-22T03:52:54;9.10;99.90
26947;DHT22;14501;52.282;10.560;2024-03-22T03:55:19;9.20;99.90
26947;DHT22;14501;52.282;10.560;2024-03-22T03:57:45;9.20;99.90
26947;DHT22;14501;52.282;10.560;2024-03-22T04:00:11;9.20;99.90
26947;DHT22;14501;52.282;10.560;2024-03-22T04:02:36;9.20;99.90
26947;DHT22;14501;52.282;10.560;2024-03-22T04:07:28;9.10;99.90
26947;DHT22;14501;52.282;10.560;2024-03-22T04:09:54;9.10;99.90
26947;DHT22;14501;52.282;10.560;2024-03-22T04:12:20;9.10;99.90
26947;DHT22;14501;52.282;10.560;2024-03-22T04:14:45;9.10;99.90
26947;DHT22;14501;52.282;10.560;2024-03-22T04:17:11;9.10;99.90
26947;DHT22;14501;52.282;10.560;2024-03-22T04:19:37;9.60;99.90
26947;DHT22;14501;52.282;10.560;2024-03-22T04:22:03;9.10;99.90
26947;DHT22;14501;52.282;10.560;2024-03-22T04:26:54;9.20;99.90
26947;DHT22;14501;52.282;10.560;2024-03-22T04:29:20;8.60;99.90
26947;DHT22;14501;52.282;10.560;2024-03-22T04:36:37;9.20;99.90
26947;DHT22;14501;52.282;10.560;2024-03-22T04:41:29;9.10;99.90
26947;DHT22;14501;52.282;10.560;2024-03-22T04:43:54;9.10;99.90
26947;DHT22;14501;52.282;10.560;2024-03-22T04:46:20;10.40;99.90
26947;DHT22;14501;52.282;10.560;2024-03-22T04:48:45;9.10;99.90
26947;DHT22;14501;52.282;10.560;2024-03-22T04:51:11;9.10;99.90
26947;DHT22;14501;52.282;10.560;2024-03-22T04:56:03;9.10;99.90
26947;DHT22;14501;52.282;10.560;2024-03-22T04:58:29;9.20;99.90
26947;DHT22;14501;52.282;10.560;2024-03-22T05:00:58;8.70;99.90
26947;DHT22;14501;52.282;10.560;2024-03-22T05:03:24;9.70;99.90
26947;DHT22;14501;52.282;10.560;2024-03-22T05:13:08;9.30;99.90
26947;DHT22;14501;52.282;10.560;2024-03-22T05:15:34;9.10;99.90
26947;DHT22;14501;52.282;10.560;2024-03-22T05:17:59;9.40;99.90
26947;DHT22;14501;52.282;10.560;2024-03-22T05:20:25;11.90;99.90
26947;DHT22;14501;52.282;10.560;2024-03-22T05:25:17;9.40;99.90
26947;DHT22;14501;52.282;10.560;2024-03-22T05:27:44;9.50;99.90
26947;DHT22;14501;52.282;10.560;2024-03-22T05:30:10;9.50;99.90
26947;DHT22;14501;52.282;10.560;2024-03-22T05:32:36;9.50;99.90
26947;DHT22;14501;52.282;10.560;2024-03-22T05:35:02;9.40;99.90
26947;DHT22;14501;52.282;10.560;2024-03-22T05:37:28;9.50;99.90
26947;DHT22;14501;52.282;10.560;2024-03-22T05:39:55;9.30;99.90
26947;DHT22;14501;52.282;10.560;2024-03-22T05:44:47;9.50;99.90
26947;DHT22;14501;52.282;10.560;2024-03-22T05:49:39;9.60;99.90
26947;DHT22;14501;52.282;10.560;2024-03-22T05:52:05;9.30;99.90
26947;DHT22;14501;52.282;10.560;2024-03-22T05:54:30;9.70;99.90
26947;DHT22;14501;52.282;10.560;2024-03-22T05:56:56;10.30;99.90
26947;DHT22;14501;52.282;10.560;2024-03-22T05:59:22;9.80;99.90
26947;DHT22;14501;52.282;10.560;2024-03-22T06:01:47;9.80;99.90
26947;DHT22;14501;52.282;10.560;2024-03-22T06:04:13;9.90;99.90
26947;DHT22;14501;52.282;10.560;2024-03-22T06:06:39;10.00;99.90
26947;DHT22;14501;52.282;10.560;2024-03-22T06:11:34;10.00;99.90
26947;DHT22;14501;52.282;10.560;2024-03-22T06:14:00;10.20;99.90
26947;DHT22;14501;52.282;10.560;2024-03-22T06:18:52;10.20;99.90
26947;DHT22;14501;52.282;10.560;2024-03-22T06:21:17;10.10;99.90
26947;DHT22;14501;52.282;10.560;2024-03-22T06:23:50;13.30;99.90
26947;DHT22;14501;52.282;10.560;2024-03-22T06:26:16;10.20;99.90
26947;DHT22;14501;52.282;10.560;2024-03-22T06:28:42;10.30;99.90
26947;DHT22;14501;52.282;10.560;2024-03-22T06:33:33;10.30;99.90
26947;DHT22;14501;52.282;10.560;2024-03-22T06:38:25;10.40;99.90
26947;DHT22;14501;52.282;10.560;2024-03-22T06:40:51;10.20;99.90
26947;DHT22;14501;52.282;10.560;2024-03-22T06:43:16;10.50;99.90
26947;DHT22;14501;52.282;10.560;2024-03-22T06:45:42;10.60;99.90
26947;DHT22;14501;52.282;10.560;2024-03-22T06:48:07;10.80;99.90
26947;DHT22;14501;52.282;10.560;2024-03-22T06:50:33;13.30;99.90
26947;DHT22;14501;52.282;10.560;2024-03-22T06:52:58;10.90;99.90
26947;DHT22;14501;52.282;10.560;2024-03-22T06:55:24;11.80;99.90
26947;DHT22;14501;52.282;10.560;2024-03-22T06:57:50;11.20;99.90
26947;DHT22;14501;52.282;10.560;2024-03-22T07:00:16;12.80;99.90
26947;DHT22;14501;52.282;10.560;2024-03-22T07:02:43;11.30;99.90
26947;DHT22;14501;52.282;10.560;2024-03-22T07:05:09;11.30;99.90
26947;DHT22;14501;52.282;10.560;2024-03-22T07:07:35;11.20;99.90
26947;DHT22;14501;52.282;10.560;2024-03-22T07:10:05;11.20;99.90
26947;DHT22;14501;52.282;10.560;2024-03-22T07:12:34;11.20;99.90
26947;DHT22;14501;52.282;10.560;2024-03-22T07:15:00;11.20;99.90
26947;DHT22;14501;52.282;10.560;2024-03-22T07:17:26;11.20;99.90
26947;DHT22;14501;52.282;10.560;2024-03-22T07:19:52;11.20;99.90
26947;DHT22;14501;52.282;10.560;2024-03-22T07:22:21;11.30;99.90
26947;DHT22;14501;52.282;10.560;2024-03-22T07:24:47;10.80;99.90
26947;DHT22;14501;52.282;10.560;2024-03-22T07:27:16;11.20;99.90
26947;DHT22;14501;52.282;10.560;2024-03-22T07:29:47;11.30;99.90
26947;DHT22;14501;52.282;10.560;2024-03-22T07:32:12;10.60;99.90
26947;DHT22;14501;52.282;10.560;2024-03-22T07:34:38;12.30;99.90
26947;DHT22;14501;52.282;10.560;2024-03-22T07:37:03;11.30;99.90
26947;DHT22;14501;52.282;10.560;2024-03-22T07:39:29;11.30;99.90
26947;DHT22;14501;52.282;10.560;2024-03-22T07:44:21;11.40;99.90
26947;DHT22;14501;52.282;10.560;2024-03-22T07:51:41;11.90;99.90
26947;DHT22;14501;52.282;10.560;2024-03-22T07:54:07;12.10;99.90
26947;DHT22;14501;52.282;10.560;2024-03-22T07:56:32;12.20;99.90
26947;DHT22;14501;52.282;10.560;2024-03-22T08:01:25;12.40;99.90
26947;DHT22;14501;52.282;10.560;2024-03-22T08:03:53;12.80;99.90
26947;DHT22;14501;52.282;10.560;2024-03-22T08:06:19;13.00;99.90
26947;DHT22;14501;52.282;10.560;2024-03-22T08:08:45;13.00;99.90
26947;DHT22;14501;52.282;10.560;2024-03-22T08:11:10;15.40;99.90
26947;DHT22;14501;52.282;10.560;2024-03-22T08:13:36;12.90;99.90
26947;DHT22;14501;52.282;10.560;2024-03-22T08:16:02;14.20;99.90
26947;DHT22;14501;52.282;10.560;2024-03-22T08:18:28;13.00;99.90
26947;DHT22;14501;52.282;10.560;2024-03-22T08:20:54;12.90;99.90
26947;DHT22;14501;52.282;10.560;2024-03-22T08:23:20;12.70;99.90
26947;DHT22;14501;52.282;10.560;2024-03-22T08:28:37;12.60;99.90
26947;DHT22;14501;52.282;10.560;2024-03-22T08:31:04;12.60;99.90
26947;DHT22;14501;52.282;10.560;2024-03-22T08:33:30;12.60;99.90
26947;DHT22;14501;52.282;10.560;2024-03-22T08:35:56;13.60;99.90
26947;DHT22;14501;52.282;10.560;2024-03-22T08:38:21;12.70;99.90
26947;DHT22;14501;52.282;10.560;2024-03-22T08:40:47;12.70;99.90
26947;DHT22;14501;52.282;10.560;2024-03-22T08:43:13;12.70;99.90
26947;DHT22;14501;52.282;10.560;2024-03-22T08:45:39;12.70;99.90
26947;DHT22;14501;52.282;10.560;2024-03-22T08:48:05;12.80;99.90
26947;DHT22;14501;52.282;10.560;2024-03-22T08:50:30;12.80;99.90
26947;DHT22;14501;52.282;10.560;2024-03-22T08:52:56;12.90;99.90
26947;DHT22;14501;52.282;10.560;2024-03-22T08:55:22;12.90;99.90
26947;DHT22;14501;52.282;10.560;2024-03-22T08:57:47;12.80;99.90
26947;DHT22;14501;52.282;10.560;2024-03-22T09:00:14;12.90;99.90
26947;DHT22;14501;52.282;10.560;2024-03-22T09:02:39;12.90;99.90
26947;DHT22;14501;52.282;10.560;2024-03-22T09:05:06;12.90;99.90
26947;DHT22;14501;52.282;10.560;2024-03-22T09:07:31;12.90;99.90
26947;DHT22;14501;52.282;10.560;2024-03-22T09:09:57;13.00;99.90
26947;DHT22;14501;52.282;10.560;2024-03-22T09:12:23;13.10;99.90
26947;DHT22;14501;52.282;10.560;2024-03-22T09:14:48;13.10;99.90
26947;DHT22;14501;52.282;10.560;2024-03-22T09:17:14;13.10;99.90
26947;DHT22;14501;52.282;10.560;2024-03-22T09:19:39;13.30;99.90
26947;DHT22;14501;52.282;10.560;2024-03-22T09:22:05;13.60;99.90
26947;DHT22;14501;52.282;10.560;2024-03-22T09:24:31;13.80;99.90
26947;DHT22;14501;52.282;10.560;2024-03-22T09:26:56;13.90;99.90
26947;DHT22;14501;52.282;10.560;2024-03-22T09:29:23;14.10;99.90
26947;DHT22;14501;52.282;10.560;2024-03-22T09:31:48;14.20;99.90
26947;DHT22;14501;52.282;10.560;2024-03-22T09:34:16;14.10;99.90
26947;DHT22;14501;52.282;10.560;2024-03-22T09:36:41;14.00;99.90
26947;DHT22;14501;52.282;10.560;2024-03-22T09:39:07;14.00;99.90
26947;DHT22;14501;52.282;10.560;2024-03-22T09:41:42;14.00;99.90
26947;DHT22;14501;52.282;10.560;2024-03-22T09:44:13;14.90;99.90
26947;DHT22;14501;52.282;10.560;2024-03-22T09:46:42;13.90;99.90
26947;DHT22;14501;52.282;10.560;2024-03-22T09:49:09;13.80;99.90
26947;DHT22;14501;52.282;10.560;2024-03-22T09:51:37;13.60;99.90
26947;DHT22;14501;52.282;10.560;2024-03-22T09:54:03;13.70;99.90
26947;DHT22;14501;52.282;10.560;2024-03-22T09:56:30;13.70;99.90
26947;DHT22;14501;52.282;10.560;2024-03-22T09:58:57;13.70;99.90
26947;DHT22;14501;52.282;10.560;2024-03-22T10:01:24;13.60;99.90
26947;DHT22;14501;52.282;10.560;2024-03-22T10:03:51;13.60;99.90
26947;DHT22;14501;52.282;10.560;2024-03-22T10:06:17;13.60;99.90
26947;DHT22;14501;52.282;10.560;2024-03-22T10:08:44;12.40;99.90
26947;DHT22;14501;52.282;10.560;2024-03-22T10:11:10;14.50;99.90
26947;DHT22;14501;52.282;10.560;2024-03-22T10:13:36;15.70;99.90
26947;DHT22;14501;52.282;10.560;2024-03-22T10:16:01;15.40;99.90
26947;DHT22;14501;52.282;10.560;2024-03-22T10:18:28;14.00;99.90
26947;DHT22;14501;52.282;10.560;2024-03-22T10:23:26;14.60;99.90
26947;DHT22;14501;52.282;10.560;2024-03-22T10:25:52;12.40;99.90
26947;DHT22;14501;52.282;10.560;2024-03-22T10:28:17;14.00;99.90
26947;DHT22;14501;52.282;10.560;2024-03-22T10:30:44;14.20;99.90
26947;DHT22;14501;52.282;10.560;2024-03-22T10:33:10;14.60;99.90
26947;DHT22;14501;52.282;10.560;2024-03-22T10:35:36;15.00;99.90
26947;DHT22;14501;52.282;10.560;2024-03-22T10:38:03;15.20;99.90
26947;DHT22;14501;52.282;10.560;2024-03-22T10:40:29;15.20;99.90
26947;DHT22;14501;52.282;10.560;2024-03-22T10:42:55;15.10;99.90
26947;DHT22;14501;52.282;10.560;2024-03-22T10:45:22;15.40;99.90
26947;DHT22;14501;52.282;10.560;2024-03-22T10:47:53;15.60;99.90
26947;DHT22;14501;52.282;10.560;2024-03-22T10:50:22;15.80;99.90
26947;DHT22;14501;52.282;10.560;2024-03-22T10:52:59;16.20;99.90
26947;DHT22;14501;52.282;10.560;2024-03-22T10:55:30;15.80;99.90
26947;DHT22;14501;52.282;10.560;2024-03-22T10:57:58;17.00;99.90
26947;DHT22;14501;52.282;10.560;2024-03-22T11:00:28;18.10;99.90
26947;DHT22;14501;52.282;10.560;2024-03-22T11:02:54;15.60;99.90
26947;DHT22;14501;52.282;10.560;2024-03-22T11:05:20;15.30;99.90
26947;DHT22;14501;52.282;10.560;2024-03-22T11:07:45;15.30;99.90
26947;DHT22;14501;52.282;10.560;2024-03-22T11:10:12;15.30;99.90
26947;DHT22;14501;52.282;10.560;2024-03-22T11:12:41;15.30;99.90
26947;DHT22;14501;52.282;10.560;2024-03-22T11:15:10;15.20;99.90
26947;DHT22;14501;52.282;10.560;2024-03-22T11:17:37;15.20;99.90
26947;DHT22;14501;52.282;10.560;2024-03-22T11:20:04;15.10;99.90
26947;DHT22;14501;52.282;10.560;2024-03-22T11:22:31;15.10;99.90
26947;DHT22;14501;52.282;10.560;2024-03-22T11:24:57;17.00;99.90
26947;DHT22;14501;52.282;10.560;2024-03-22T11:27:22;14.90;99.90
26947;DHT22;14501;52.282;10.560;2024-03-22T11:29:48;15.00;99.90
26947;DHT22;14501;52.282;10.560;2024-03-22T11:32:16;15.10;99.90
26947;DHT22;14501;52.282;10.560;2024-03-22T11:34:42;15.00;99.90
26947;DHT22;14501;52.282;10.560;2024-03-22T11:37:07;14.90;99.90
26947;DHT22;14501;52.282;10.560;2024-03-22T11:42:06;14.40;99.90
26947;DHT22;14501;52.282;10.560;2024-03-22T11:44:33;14.10;99.90
26947;DHT22;14501;52.282;10.560;2024-03-22T11:47:00;13.90;99.90
26947;DHT22;14501;52.282;10.560;2024-03-22T11:51:52;13.90;99.90
26947;DHT22;14501;52.282;10.560;2024-03-22T11:54:21;13.90;99.90
26947;DHT22;14501;52.282;10.560;2024-03-22T11:56:46;13.70;99.90
26947;DHT22;14501;52.282;10.560;2024-03-22T11:59:12;16.90;99.90
26947;DHT22;14501;52.282;10.560;2024-03-22T12:01:38;13.50;99.90
26947;DHT22;14501;52.282;10.560;2024-03-22T12:04:04;14.90;99.90
26947;DHT22;14501;52.282;10.560;2024-03-22T12:06:30;15.30;99.90
26947;DHT22;14501;52.282;10.560;2024-03-22T12:08:55;15.30;99.90
26947;DHT22;14501;52.282;10.560;2024-03-22T12:11:21;15.30;99.90
26947;DHT22;14501;52.282;10.560;2024-03-22T12:13:46;16.20;99.90
26947;DHT22;14501;52.282;10.560;2024-03-22T12:16:12;15.40;99.90
26947;DHT22;14501;52.282;10.560;2024-03-22T12:18:37;15.40;99.90
26947;DHT22;14501;52.282;10.560;2024-03-22T12:21:03;15.70;99.90
26947;DHT22;14501;52.282;10.560;2024-03-22T12:23:29;15.40;99.90
26947;DHT22;14501;52.282;10.560;2024-03-22T12:25:54;15.30;99.90
26947;DHT22;14501;52.282;10.560;2024-03-22T12:28:21;16.10;99.90
26947;DHT22;14501;52.282;10.560;2024-03-22T12:30:48;15.40;99.90
26947;DHT22;14501;52.282;10.560;2024-03-22T12:33:14;17.20;99.90
26947;DHT22;14501;52.282;10.560;2024-03-22T12:35:40;15.40;99.90
26947;DHT22;14501;52.282;10.560;2024-03-22T12:38:06;15.50;99.90
26947;DHT22;14501;52.282;10.560;2024-03-22T12:40:32;15.60;99.90
26947;DHT22;14501;52.282;10.560;2024-03-22T12:47:51;15.70;99.90
26947;DHT22;14501;52.282;10.560;2024-03-22T12:50:17;15.50;99.90
26947;DHT22;14501;52.282;10.560;2024-03-22T12:52:43;15.50;99.90
26947;DHT22;14501;52.282;10.560;2024-03-22T12:55:10;15.40;99.90
26947;DHT22;14501;52.282;10.560;2024-03-22T12:57:35;15.40;99.90
26947;DHT22;14501;52.282;10.560;2024-03-22T13:00:01;15.40;99.90
26947;DHT22;14501;52.282;10.560;2024-03-22T13:02:29;15.30;99.90
26947;DHT22;14501;52.282;10.560;2024-03-22T13:04:54;15.00;99.90
26947;DHT22;14501;52.282;10.560;2024-03-22T13:07:20;15.40;99.90
26947;DHT22;14501;52.282;10.560;2024-03-22T13:09:45;15.80;99.90
26947;DHT22;14501;52.282;10.560;2024-03-22T13:12:11;15.20;99.90
26947;DHT22;14501;52.282;10.560;2024-03-22T13:14:37;14.70;99.90
26947;DHT22;14501;52.282;10.560;2024-03-22T13:17:02;14.30;99.90
26947;DHT22;14501;52.282;10.560;2024-03-22T13:19:28;14.50;99.90
26947;DHT22;14501;52.282;10.560;2024-03-22T13:21:53;13.60;99.90
26947;DHT22;14501;52.282;10.560;2024-03-22T13:24:19;14.50;99.90
26947;DHT22;14501;52.282;10.560;2024-03-22T13:26:45;14.50;99.90
26947;DHT22;14501;52.282;10.560;2024-03-22T13:29:11;15.60;99.90
26947;DHT22;14501;52.282;10.560;2024-03-22T13:31:39;15.00;99.90
26947;DHT22;14501;52.282;10.560;2024-03-22T13:34:05;14.40;99.90
26947;DHT22;14501;52.282;10.560;2024-03-22T13:36:30;14.40;99.90
26947;DHT22;14501;52.282;10.560;2024-03-22T13:38:58;14.30;99.90
26947;DHT22;14501;52.282;10.560;2024-03-22T13:41:24;14.20;99.90
26947;DHT22;14501;52.282;10.560;2024-03-22T13:43:49;14.20;99.90
26947;DHT22;14501;52.282;10.560;2024-03-22T13:46:15;16.00;99.90
26947;DHT22;14501;52.282;10.560;2024-03-22T13:48:42;13.10;99.90
26947;DHT22;14501;52.282;10.560;2024-03-22T13:51:08;14.20;99.90
26947;DHT22;14501;52.282;10.560;2024-03-22T13:53:34;14.10;99.90
26947;DHT22;14501;52.282;10.560;2024-03-22T13:56:00;14.80;99.90
26947;DHT22;14501;52.282;10.560;2024-03-22T13:58:26;13.90;99.90
26947;DHT22;14501;52.282;10.560;2024-03-22T14:00:52;15.30;99.90
26947;DHT22;14501;52.282;10.560;2024-03-22T14:03:18;13.70;99.90
26947;DHT22;14501;52.282;10.560;2024-03-22T14:05:44;13.50;99.90
26947;DHT22;14501;52.282;10.560;2024-03-22T14:08:10;13.50;99.90
26947;DHT22;14501;52.282;10.560;2024-03-22T14:10:36;13.60;99.90
26947;DHT22;14501;52.282;10.560;2024-03-22T14:13:03;13.60;99.90
26947;DHT22;14501;52.282;10.560;2024-03-22T14:15:29;13.60;99.90
26947;DHT22;14501;52.282;10.560;2024-03-22T14:17:57;12.90;99.90
26947;DHT22;14501;52.282;10.560;2024-03-22T14:20:24;13.50;99.90
26947;DHT22;14501;52.282;10.560;2024-03-22T14:22:50;13.40;99.90
26947;DHT22;14501;52.282;10.560;2024-03-22T14:25:16;13.80;99.90
26947;DHT22;14501;52.282;10.560;2024-03-22T14:27:42;13.20;99.90
26947;DHT22;14501;52.282;10.560;2024-03-22T14:30:11;14.20;99.90
26947;DHT22;14501;52.282;10.560;2024-03-22T14:35:04;12.80;99.90
26947;DHT22;14501;52.282;10.560;2024-03-22T14:37:31;12.60;99.90
26947;DHT22;14501;52.282;10.560;2024-03-22T14:39:56;13.60;99.90
26947;DHT22;14501;52.282;10.560;2024-03-22T14:44:48;12.30;99.90
26947;DHT22;14501;52.282;10.560;2024-03-22T14:47:14;12.20;99.90
26947;DHT22;14501;52.282;10.560;2024-03-22T14:49:39;12.20;99.90
26947;DHT22;14501;52.282;10.560;2024-03-22T14:52:06;12.10;99.90
26947;DHT22;14501;52.282;10.560;2024-03-22T14:54:32;12.00;99.90
26947;DHT22;14501;52.282;10.560;2024-03-22T14:56:57;12.00;99.90
26947;DHT22;14501;52.282;10.560;2024-03-22T14:59:23;11.80;99.90
26947;DHT22;14501;52.282;10.560;2024-03-22T15:01:52;11.50;99.90
26947;DHT22;14501;52.282;10.560;2024-03-22T15:04:19;11.60;99.90
26947;DHT22;14501;52.282;10.560;2024-03-22T15:06:45;11.70;99.90
26947;DHT22;14501;52.282;10.560;2024-03-22T15:11:39;11.50;99.90
26947;DHT22;14501;52.282;10.560;2024-03-22T15:14:04;12.60;99.90
26947;DHT22;14501;52.282;10.560;2024-03-22T15:16:31;11.40;99.90
26947;DHT22;14501;52.282;10.560;2024-03-22T15:18:56;11.30;99.90
26947;DHT22;14501;52.282;10.560;2024-03-22T15:21:22;11.10;99.90
26947;DHT22;14501;52.282;10.560;2024-03-22T15:23:48;11.60;99.90
26947;DHT22;14501;52.282;10.560;2024-03-22T15:26:14;11.30;99.90
26947;DHT22;14501;52.282;10.560;2024-03-22T15:28:40;11.20;99.90
26947;DHT22;14501;52.282;10.560;2024-03-22T15:31:06;12.60;99.90
26947;DHT22;14501;52.282;10.560;2024-03-22T15:33:32;11.30;99.90
26947;DHT22;14501;52.282;10.560;2024-03-22T15:38:24;11.10;99.90
26947;DHT22;14501;52.282;10.560;2024-03-22T15:41:00;12.40;99.90
26947;DHT22;14501;52.282;10.560;2024-03-22T15:43:25;11.10;99.90
26947;DHT22;14501;52.282;10.560;2024-03-22T15:45:51;11.10;99.90
26947;DHT22;14501;52.282;10.560;2024-03-22T15:48:16;11.00;99.90
26947;DHT22;14501;52.282;10.560;2024-03-22T15:50:46;10.90;99.90
26947;DHT22;14501;52.282;10.560;2024-03-22T15:55:38;10.80;99.90
26947;DHT22;14501;52.282;10.560;2024-03-22T15:58:03;10.80;99.90
26947;DHT22;14501;52.282;10.560;2024-03-22T16:00:31;10.90;99.90
26947;DHT22;14501;52.282;10.560;2024-03-22T16:02:57;10.70;99.90
26947;DHT22;14501;52.282;10.560;2024-03-22T16:05:24;10.80;99.90
26947;DHT22;14501;52.282;10.560;2024-03-22T16:07:49;10.00;99.90
26947;DHT22;14501;52.282;10.560;2024-03-22T16:10:15;10.80;99.90
26947;DHT22;14501;52.282;10.560;2024-03-22T16:12:41;10.70;99.90
26947;DHT22;14501;52.282;10.560;2024-03-22T16:15:06;10.80;99.90
26947;DHT22;14501;52.282;10.560;2024-03-22T16:17:32;10.70;99.90
26947;DHT22;14501;52.282;10.560;2024-03-22T16:19:58;10.70;99.90
26947;DHT22;14501;52.282;10.560;2024-03-22T16:22:24;10.70;99.90
26947;DHT22;14501;52.282;10.560;2024-03-22T16:24:50;10.70;99.90
26947;DHT22;14501;52.282;10.560;2024-03-22T16:27:16;10.60;99.90
26947;DHT22;14501;52.282;10.560;2024-03-22T16:29:41;10.60;99.90
26947;DHT22;14501;52.282;10.560;2024-03-22T16:37:02;10.60;99.90
26947;DHT22;14501;52.282;10.560;2024-03-22T16:41:54;10.50;99.90
26947;DHT22;14501;52.282;10.560;2024-03-22T16:46:45;10.40;99.90